sensor_id;sensor_type;location;lat;lon;timestamp;temperature;humidity
45383;DHT22;42455;51.660;5.824;2022-09-09T00:01:43;16.9;95.5
45383;DHT22;42455;51.660;5.824;2022-09-09T00:07:03;16.8;95.5
45383;DHT22;42455;51.660;5.824;2022-09-09T00:11:53;16.8;95.5
45383;DHT22;42455;51.660;5.824;2022-09-09T00:17:00;16.7;95.5
45383;DHT22;42455;51.660;5.824;2022-09-09T00:22:15;16.7;95.5
45383;DHT22;42455;51.660;5.824;2022-09-09T00:27:13;16.6;95.5
45383;DHT22;42455;51.660;5.824;2022-09-09T00:32:18;16.5;95.5
45383;DHT22;42455;51.660;5.824;2022-09-09T00:37:21;16.5;95.5
45383;DHT22;42455;51.660;5.824;2022-09-09T00:42:36;16.5;95.5
45383;DHT22;42455;51.660;5.824;2022-09-09T00:47:46;16.4;96.0
45383;DHT22;42455;51.660;5.824;2022-09-09T00:52:59;16.4;96.0
45383;DHT22;42455;51.660;5.824;2022-09-09T00:57:45;16.3;96.0
45383;DHT22;42455;51.660;5.824;2022-09-09T01:18:17;16.2;96.0
45383;DHT22;42455;51.660;5.824;2022-09-09T01:23:34;16.1;96.5
45383;DHT22;42455;51.660;5.824;2022-09-09T01:28:29;16.1;96.5
45383;DHT22;42455;51.660;5.824;2022-09-09T01:33:32;16.1;96.5
45383;DHT22;42455;51.660;5.824;2022-09-09T01:38:45;16.1;96.5
45383;DHT22;42455;51.660;5.824;2022-09-09T01:43:50;16.1;97.0
45383;DHT22;42455;51.660;5.824;2022-09-09T01:49:05;16.1;97.0
45383;DHT22;42455;51.660;5.824;2022-09-09T01:54:15;16.1;97.0
45383;DHT22;42455;51.660;5.824;2022-09-09T02:00:08;16.1;97.0
45383;DHT22;42455;51.660;5.824;2022-09-09T02:04:45;16.1;97.0
45383;DHT22;42455;51.660;5.824;2022-09-09T02:10:01;16.1;97.0
45383;DHT22;42455;51.660;5.824;2022-09-09T02:15:13;16.1;97.0
45383;DHT22;42455;51.660;5.824;2022-09-09T02:20:12;16.1;97.0
45383;DHT22;42455;51.660;5.824;2022-09-09T02:25:18;16.1;97.0
45383;DHT22;42455;51.660;5.824;2022-09-09T02:30:22;16.1;97.5
45383;DHT22;42455;51.660;5.824;2022-09-09T02:35:29;16.1;97.5
45383;DHT22;42455;51.660;5.824;2022-09-09T02:40:34;16.2;97.5
45383;DHT22;42455;51.660;5.824;2022-09-09T02:45:44;16.1;97.5
45383;DHT22;42455;51.660;5.824;2022-09-09T02:51:00;16.1;97.5
45383;DHT22;42455;51.660;5.824;2022-09-09T02:55:55;16.1;97.5
45383;DHT22;42455;51.660;5.824;2022-09-09T03:00:59;16.1;97.5
45383;DHT22;42455;51.660;5.824;2022-09-09T03:06:05;16.1;97.5
45383;DHT22;42455;51.660;5.824;2022-09-09T03:11:11;16.1;97.5
45383;DHT22;42455;51.660;5.824;2022-09-09T03:16:17;16.1;97.5
45383;DHT22;42455;51.660;5.824;2022-09-09T03:21:24;16.1;97.5
45383;DHT22;42455;51.660;5.824;2022-09-09T03:26:30;16.1;97.5
45383;DHT22;42455;51.660;5.824;2022-09-09T03:31:36;16.1;98.0
45383;DHT22;42455;51.660;5.824;2022-09-09T03:36:42;16.1;98.0
45383;DHT22;42455;51.660;5.824;2022-09-09T03:41:48;16.1;98.0
45383;DHT22;42455;51.660;5.824;2022-09-09T03:46:55;16.2;98.0
45383;DHT22;42455;51.660;5.824;2022-09-09T03:52:01;16.2;98.0
45383;DHT22;42455;51.660;5.824;2022-09-09T03:57:08;16.2;98.0
45383;DHT22;42455;51.660;5.824;2022-09-09T04:02:12;16.3;98.0
45383;DHT22;42455;51.660;5.824;2022-09-09T04:07:19;16.3;98.0
45383;DHT22;42455;51.660;5.824;2022-09-09T04:12:24;16.4;98.0
45383;DHT22;42455;51.660;5.824;2022-09-09T04:17:30;16.4;98.0
45383;DHT22;42455;51.660;5.824;2022-09-09T04:22:36;16.4;98.0
45383;DHT22;42455;51.660;5.824;2022-09-09T04:27:43;16.5;98.5
45383;DHT22;42455;51.660;5.824;2022-09-09T04:32:49;16.5;98.5
45383;DHT22;42455;51.660;5.824;2022-09-09T04:37:55;16.5;98.5
45383;DHT22;42455;51.660;5.824;2022-09-09T04:43:02;16.6;98.5
45383;DHT22;42455;51.660;5.824;2022-09-09T04:48:08;16.6;98.5
45383;DHT22;42455;51.660;5.824;2022-09-09T04:53:14;16.7;98.5
45383;DHT22;42455;51.660;5.824;2022-09-09T04:58:20;16.7;98.5
45383;DHT22;42455;51.660;5.824;2022-09-09T05:03:26;16.8;98.5
45383;DHT22;42455;51.660;5.824;2022-09-09T05:08:32;16.8;98.5
45383;DHT22;42455;51.660;5.824;2022-09-09T05:13:38;16.8;98.5
45383;DHT22;42455;51.660;5.824;2022-09-09T05:18:45;16.8;98.5
45383;DHT22;42455;51.660;5.824;2022-09-09T05:23:51;16.9;98.5
45383;DHT22;42455;51.660;5.824;2022-09-09T05:28:57;16.9;98.5
45383;DHT22;42455;51.660;5.824;2022-09-09T05:34:03;16.9;98.5
45383;DHT22;42455;51.660;5.824;2022-09-09T05:39:09;16.9;98.5
45383;DHT22;42455;51.660;5.824;2022-09-09T05:44:16;17.0;98.5
45383;DHT22;42455;51.660;5.824;2022-09-09T05:49:22;17.0;98.5
45383;DHT22;42455;51.660;5.824;2022-09-09T05:54:28;17.0;98.5
45383;DHT22;42455;51.660;5.824;2022-09-09T05:59:33;17.1;98.5
45383;DHT22;42455;51.660;5.824;2022-09-09T06:04:40;17.1;98.5
45383;DHT22;42455;51.660;5.824;2022-09-09T06:09:46;17.2;98.5
45383;DHT22;42455;51.660;5.824;2022-09-09T06:14:52;17.2;98.5
45383;DHT22;42455;51.660;5.824;2022-09-09T06:19:57;17.2;98.5
45383;DHT22;42455;51.660;5.824;2022-09-09T06:25:04;17.2;98.5
45383;DHT22;42455;51.660;5.824;2022-09-09T06:30:10;17.3;98.5
45383;DHT22;42455;51.660;5.824;2022-09-09T06:35:16;17.4;98.5
45383;DHT22;42455;51.660;5.824;2022-09-09T06:40:22;17.5;98.5
45383;DHT22;42455;51.660;5.824;2022-09-09T06:45:28;17.7;98.5
45383;DHT22;42455;51.660;5.824;2022-09-09T06:50:34;17.9;98.5
45383;DHT22;42455;51.660;5.824;2022-09-09T06:55:41;18.2;98.5
45383;DHT22;42455;51.660;5.824;2022-09-09T07:00:47;18.4;98.5
45383;DHT22;42455;51.660;5.824;2022-09-09T07:05:53;18.6;98.0
45383;DHT22;42455;51.660;5.824;2022-09-09T07:11:03;18.6;97.5
45383;DHT22;42455;51.660;5.824;2022-09-09T07:16:07;18.7;97.5
45383;DHT22;42455;51.660;5.824;2022-09-09T07:21:14;18.8;97.0
45383;DHT22;42455;51.660;5.824;2022-09-09T07:26:22;18.9;96.5
45383;DHT22;42455;51.660;5.824;2022-09-09T07:31:26;19.0;96.5
45383;DHT22;42455;51.660;5.824;2022-09-09T07:36:35;19.2;97.0
45383;DHT22;42455;51.660;5.824;2022-09-09T07:41:39;19.4;96.0
45383;DHT22;42455;51.660;5.824;2022-09-09T07:46:43;19.4;95.5
45383;DHT22;42455;51.660;5.824;2022-09-09T07:51:49;19.4;95.0
45383;DHT22;42455;51.660;5.824;2022-09-09T07:56:55;19.4;95.0
45383;DHT22;42455;51.660;5.824;2022-09-09T08:02:00;19.4;95.0
45383;DHT22;42455;51.660;5.824;2022-09-09T08:07:06;19.6;95.0
45383;DHT22;42455;51.660;5.824;2022-09-09T08:12:12;19.8;95.0
45383;DHT22;42455;51.660;5.824;2022-09-09T08:17:17;20.0;94.5
45383;DHT22;42455;51.660;5.824;2022-09-09T08:22:23;20.1;93.5
45383;DHT22;42455;51.660;5.824;2022-09-09T08:27:29;20.1;93.0
45383;DHT22;42455;51.660;5.824;2022-09-09T08:32:36;20.0;93.0
45383;DHT22;42455;51.660;5.824;2022-09-09T08:37:42;20.1;93.0
45383;DHT22;42455;51.660;5.824;2022-09-09T08:42:55;20.2;92.5
45383;DHT22;42455;51.660;5.824;2022-09-09T08:48:10;20.2;92.0
45383;DHT22;42455;51.660;5.824;2022-09-09T08:53:02;20.2;92.0
45383;DHT22;42455;51.660;5.824;2022-09-09T08:58:11;20.3;92.5
45383;DHT22;42455;51.660;5.824;2022-09-09T09:03:20;20.4;91.5
45383;DHT22;42455;51.660;5.824;2022-09-09T09:08:58;20.5;91.0
45383;DHT22;42455;51.660;5.824;2022-09-09T09:13:30;20.5;91.0
45383;DHT22;42455;51.660;5.824;2022-09-09T09:18:31;20.5;91.0
45383;DHT22;42455;51.660;5.824;2022-09-09T09:23:45;20.6;91.0
45383;DHT22;42455;51.660;5.824;2022-09-09T09:28:44;20.7;90.5
45383;DHT22;42455;51.660;5.824;2022-09-09T09:33:52;20.8;90.5
45383;DHT22;42455;51.660;5.824;2022-09-09T09:38:58;20.9;90.0
45383;DHT22;42455;51.660;5.824;2022-09-09T09:44:03;20.8;89.5
45383;DHT22;42455;51.660;5.824;2022-09-09T09:49:10;20.8;89.5
45383;DHT22;42455;51.660;5.824;2022-09-09T09:54:29;20.6;89.0
45383;DHT22;42455;51.660;5.824;2022-09-09T09:59:22;20.6;89.5
45383;DHT22;42455;51.660;5.824;2022-09-09T10:04:26;20.6;89.5
45383;DHT22;42455;51.660;5.824;2022-09-09T10:09:33;20.6;89.0
45383;DHT22;42455;51.660;5.824;2022-09-09T10:14:55;20.6;89.0
45383;DHT22;42455;51.660;5.824;2022-09-09T10:19:50;20.6;88.5
45383;DHT22;42455;51.660;5.824;2022-09-09T10:25:37;20.6;89.0
45383;DHT22;42455;51.660;5.824;2022-09-09T10:30:35;20.6;89.0
45383;DHT22;42455;51.660;5.824;2022-09-09T10:35:23;20.7;89.0
45383;DHT22;42455;51.660;5.824;2022-09-09T10:40:28;20.8;88.5
45383;DHT22;42455;51.660;5.824;2022-09-09T10:45:20;20.8;88.5
45383;DHT22;42455;51.660;5.824;2022-09-09T10:51:02;20.8;88.5
45383;DHT22;42455;51.660;5.824;2022-09-09T10:55:38;20.7;88.5
45383;DHT22;42455;51.660;5.824;2022-09-09T11:00:45;20.6;88.5
45383;DHT22;42455;51.660;5.824;2022-09-09T11:05:46;20.6;89.0
45383;DHT22;42455;51.660;5.824;2022-09-09T11:10:58;20.5;89.5
45383;DHT22;42455;51.660;5.824;2022-09-09T11:16:19;20.3;90.0
45383;DHT22;42455;51.660;5.824;2022-09-09T11:21:02;20.2;90.0
45383;DHT22;42455;51.660;5.824;2022-09-09T11:26:05;20.0;90.5
45383;DHT22;42455;51.660;5.824;2022-09-09T11:32:12;19.8;91.5
45383;DHT22;42455;51.660;5.824;2022-09-09T11:38:15;19.7;92.0
45383;DHT22;42455;51.660;5.824;2022-09-09T11:41:33;19.7;92.5
45383;DHT22;42455;51.660;5.824;2022-09-09T11:46:38;19.7;93.0
45383;DHT22;42455;51.660;5.824;2022-09-09T11:51:36;19.6;93.5
45383;DHT22;42455;51.660;5.824;2022-09-09T11:56:44;19.6;93.5
45383;DHT22;42455;51.660;5.824;2022-09-09T12:01:54;19.8;94.5
45383;DHT22;42455;51.660;5.824;2022-09-09T12:12:05;20.3;95.0
45383;DHT22;42455;51.660;5.824;2022-09-09T12:17:17;20.5;94.5
45383;DHT22;42455;51.660;5.824;2022-09-09T12:22:37;20.5;94.0
45383;DHT22;42455;51.660;5.824;2022-09-09T12:27:20;20.6;93.5
45383;DHT22;42455;51.660;5.824;2022-09-09T12:32:25;20.6;93.5
45383;DHT22;42455;51.660;5.824;2022-09-09T12:37:37;20.5;93.5
45383;DHT22;42455;51.660;5.824;2022-09-09T12:42:39;20.5;93.0
45383;DHT22;42455;51.660;5.824;2022-09-09T12:47:45;20.5;93.5
45383;DHT22;42455;51.660;5.824;2022-09-09T12:52:50;20.7;93.5
45383;DHT22;42455;51.660;5.824;2022-09-09T12:57:56;20.9;93.5
45383;DHT22;42455;51.660;5.824;2022-09-09T13:03:03;20.9;93.5
45383;DHT22;42455;51.660;5.824;2022-09-09T13:08:11;21.0;93.0
45383;DHT22;42455;51.660;5.824;2022-09-09T13:13:14;21.0;93.0
45383;DHT22;42455;51.660;5.824;2022-09-09T13:18:23;21.0;92.5
45383;DHT22;42455;51.660;5.824;2022-09-09T13:23:29;21.0;92.5
45383;DHT22;42455;51.660;5.824;2022-09-09T13:28:32;20.9;92.5
45383;DHT22;42455;51.660;5.824;2022-09-09T13:33:39;20.9;92.5
45383;DHT22;42455;51.660;5.824;2022-09-09T13:38:53;20.9;92.5
45383;DHT22;42455;51.660;5.824;2022-09-09T13:43:51;20.9;92.0
45383;DHT22;42455;51.660;5.824;2022-09-09T13:48:57;20.8;92.5
45383;DHT22;42455;51.660;5.824;2022-09-09T13:54:04;20.7;92.5
45383;DHT22;42455;51.660;5.824;2022-09-09T13:59:13;20.6;93.0
45383;DHT22;42455;51.660;5.824;2022-09-09T14:04:15;20.4;93.0
45383;DHT22;42455;51.660;5.824;2022-09-09T14:09:21;20.3;93.0
45383;DHT22;42455;51.660;5.824;2022-09-09T14:14:27;20.3;94.0
45383;DHT22;42455;51.660;5.824;2022-09-09T14:19:33;20.3;94.0
45383;DHT22;42455;51.660;5.824;2022-09-09T14:24:39;20.5;94.5
45383;DHT22;42455;51.660;5.824;2022-09-09T14:29:45;20.6;94.5
45383;DHT22;42455;51.660;5.824;2022-09-09T14:34:52;20.6;94.0
45383;DHT22;42455;51.660;5.824;2022-09-09T14:39:58;20.7;93.5
45383;DHT22;42455;51.660;5.824;2022-09-09T14:45:04;20.8;93.5
45383;DHT22;42455;51.660;5.824;2022-09-09T14:50:10;20.8;93.5
45383;DHT22;42455;51.660;5.824;2022-09-09T14:55:16;20.9;93.0
45383;DHT22;42455;51.660;5.824;2022-09-09T15:00:23;21.0;93.0
45383;DHT22;42455;51.660;5.824;2022-09-09T15:05:29;21.3;93.5
45383;DHT22;42455;51.660;5.824;2022-09-09T15:10:35;21.5;93.0
45383;DHT22;42455;51.660;5.824;2022-09-09T15:15:41;21.7;92.0
45383;DHT22;42455;51.660;5.824;2022-09-09T15:25:55;21.6;91.0
45383;DHT22;42455;51.660;5.824;2022-09-09T15:31:04;21.4;91.0
45383;DHT22;42455;51.660;5.824;2022-09-09T15:36:12;21.4;91.0
45383;DHT22;42455;51.660;5.824;2022-09-09T15:41:13;21.3;90.5
45383;DHT22;42455;51.660;5.824;2022-09-09T15:46:32;21.2;91.0
45383;DHT22;42455;51.660;5.824;2022-09-09T15:51:25;21.2;91.0
45383;DHT22;42455;51.660;5.824;2022-09-09T15:56:31;21.1;91.0
45383;DHT22;42455;51.660;5.824;2022-09-09T16:01:38;21.1;91.0
45383;DHT22;42455;51.660;5.824;2022-09-09T16:06:42;20.9;90.0
45383;DHT22;42455;51.660;5.824;2022-09-09T16:11:48;20.5;89.0
45383;DHT22;42455;51.660;5.824;2022-09-09T16:16:54;20.1;89.5
45383;DHT22;42455;51.660;5.824;2022-09-09T16:22:00;19.8;90.0
45383;DHT22;42455;51.660;5.824;2022-09-09T16:27:06;19.4;90.5
45383;DHT22;42455;51.660;5.824;2022-09-09T16:32:12;19.2;91.0
45383;DHT22;42455;51.660;5.824;2022-09-09T16:37:19;19.1;92.0
45383;DHT22;42455;51.660;5.824;2022-09-09T16:42:25;19.0;92.5
45383;DHT22;42455;51.660;5.824;2022-09-09T16:47:31;18.9;93.0
45383;DHT22;42455;51.660;5.824;2022-09-09T16:52:37;18.9;93.0
45383;DHT22;42455;51.660;5.824;2022-09-09T16:57:44;18.8;93.5
45383;DHT22;42455;51.660;5.824;2022-09-09T17:02:50;18.8;93.5
45383;DHT22;42455;51.660;5.824;2022-09-09T17:07:56;18.7;94.0
45383;DHT22;42455;51.660;5.824;2022-09-09T17:13:02;18.6;94.0
45383;DHT22;42455;51.660;5.824;2022-09-09T17:18:09;18.6;94.0
45383;DHT22;42455;51.660;5.824;2022-09-09T17:23:15;18.5;94.5
45383;DHT22;42455;51.660;5.824;2022-09-09T17:28:21;18.5;94.5
45383;DHT22;42455;51.660;5.824;2022-09-09T17:33:27;18.5;95.0
45383;DHT22;42455;51.660;5.824;2022-09-09T17:38:33;18.5;95.0
45383;DHT22;42455;51.660;5.824;2022-09-09T17:43:40;18.5;95.5
45383;DHT22;42455;51.660;5.824;2022-09-09T17:48:46;18.4;95.5
45383;DHT22;42455;51.660;5.824;2022-09-09T17:53:52;18.4;95.5
45383;DHT22;42455;51.660;5.824;2022-09-09T17:58:59;18.4;95.5
45383;DHT22;42455;51.660;5.824;2022-09-09T18:04:06;18.3;95.5
45383;DHT22;42455;51.660;5.824;2022-09-09T18:09:12;18.3;95.5
45383;DHT22;42455;51.660;5.824;2022-09-09T18:14:17;18.3;96.0
45383;DHT22;42455;51.660;5.824;2022-09-09T18:19:23;18.2;96.0
45383;DHT22;42455;51.660;5.824;2022-09-09T18:24:27;18.2;96.0
45383;DHT22;42455;51.660;5.824;2022-09-09T18:29:33;18.2;96.0
45383;DHT22;42455;51.660;5.824;2022-09-09T18:34:39;18.1;96.0
45383;DHT22;42455;51.660;5.824;2022-09-09T18:39:46;18.1;96.0
45383;DHT22;42455;51.660;5.824;2022-09-09T18:44:52;18.1;96.0
45383;DHT22;42455;51.660;5.824;2022-09-09T18:49:58;18.0;96.0
45383;DHT22;42455;51.660;5.824;2022-09-09T18:55:05;18.0;96.0
45383;DHT22;42455;51.660;5.824;2022-09-09T19:00:11;17.9;96.0
45383;DHT22;42455;51.660;5.824;2022-09-09T19:05:17;17.9;96.0
45383;DHT22;42455;51.660;5.824;2022-09-09T19:10:23;17.8;96.0
45383;DHT22;42455;51.660;5.824;2022-09-09T19:15:29;17.8;96.5
45383;DHT22;42455;51.660;5.824;2022-09-09T19:20:35;17.7;96.5
45383;DHT22;42455;51.660;5.824;2022-09-09T19:25:42;17.7;96.5
45383;DHT22;42455;51.660;5.824;2022-09-09T19:30:48;17.6;96.5
45383;DHT22;42455;51.660;5.824;2022-09-09T19:35:55;17.6;96.5
45383;DHT22;42455;51.660;5.824;2022-09-09T19:41:02;17.6;97.0
45383;DHT22;42455;51.660;5.824;2022-09-09T19:46:08;17.6;97.0
45383;DHT22;42455;51.660;5.824;2022-09-09T19:51:14;17.6;97.0
45383;DHT22;42455;51.660;5.824;2022-09-09T19:56:19;17.6;97.5
45383;DHT22;42455;51.660;5.824;2022-09-09T20:01:27;17.5;97.5
45383;DHT22;42455;51.660;5.824;2022-09-09T20:06:31;17.5;97.5
45383;DHT22;42455;51.660;5.824;2022-09-09T20:11:34;17.5;97.5
45383;DHT22;42455;51.660;5.824;2022-09-09T20:16:41;17.5;97.5
45383;DHT22;42455;51.660;5.824;2022-09-09T20:21:47;17.5;97.5
45383;DHT22;42455;51.660;5.824;2022-09-09T20:26:53;17.5;97.5
45383;DHT22;42455;51.660;5.824;2022-09-09T20:31:59;17.4;97.5
45383;DHT22;42455;51.660;5.824;2022-09-09T20:37:06;17.4;97.5
45383;DHT22;42455;51.660;5.824;2022-09-09T20:42:12;17.4;98.0
45383;DHT22;42455;51.660;5.824;2022-09-09T20:47:18;17.4;98.0
45383;DHT22;42455;51.660;5.824;2022-09-09T20:52:24;17.4;98.0
45383;DHT22;42455;51.660;5.824;2022-09-09T20:57:30;17.4;98.0
45383;DHT22;42455;51.660;5.824;2022-09-09T21:02:37;17.4;98.0
45383;DHT22;42455;51.660;5.824;2022-09-09T21:07:43;17.4;98.5
45383;DHT22;42455;51.660;5.824;2022-09-09T21:12:49;17.4;98.5
45383;DHT22;42455;51.660;5.824;2022-09-09T21:17:55;17.4;98.5
45383;DHT22;42455;51.660;5.824;2022-09-09T21:23:02;17.4;98.5
45383;DHT22;42455;51.660;5.824;2022-09-09T21:28:08;17.5;98.5
45383;DHT22;42455;51.660;5.824;2022-09-09T21:33:15;17.4;98.5
45383;DHT22;42455;51.660;5.824;2022-09-09T21:38:23;17.5;98.5
45383;DHT22;42455;51.660;5.824;2022-09-09T21:43:26;17.4;98.5
45383;DHT22;42455;51.660;5.824;2022-09-09T21:48:33;17.4;98.5
45383;DHT22;42455;51.660;5.824;2022-09-09T21:53:39;17.5;98.5
45383;DHT22;42455;51.660;5.824;2022-09-09T21:58:44;17.4;98.5
45383;DHT22;42455;51.660;5.824;2022-09-09T22:03:50;17.4;98.5
45383;DHT22;42455;51.660;5.824;2022-09-09T22:08:56;17.5;98.5
45383;DHT22;42455;51.660;5.824;2022-09-09T22:14:03;17.5;98.5
45383;DHT22;42455;51.660;5.824;2022-09-09T22:19:09;17.5;98.5
45383;DHT22;42455;51.660;5.824;2022-09-09T22:24:15;17.5;98.5
45383;DHT22;42455;51.660;5.824;2022-09-09T22:29:21;17.5;98.5
45383;DHT22;42455;51.660;5.824;2022-09-09T22:34:27;17.5;98.5
45383;DHT22;42455;51.660;5.824;2022-09-09T22:39:34;17.4;98.5
45383;DHT22;42455;51.660;5.824;2022-09-09T22:44:40;17.4;98.5
45383;DHT22;42455;51.660;5.824;2022-09-09T22:49:46;17.4;98.5
45383;DHT22;42455;51.660;5.824;2022-09-09T22:54:52;17.3;98.5
45383;DHT22;42455;51.660;5.824;2022-09-09T23:05:05;17.3;98.5
45383;DHT22;42455;51.660;5.824;2022-09-09T23:10:11;17.3;98.5
45383;DHT22;42455;51.660;5.824;2022-09-09T23:15:17;17.2;98.5
45383;DHT22;42455;51.660;5.824;2022-09-09T23:20:23;17.2;98.5
45383;DHT22;42455;51.660;5.824;2022-09-09T23:25:29;17.1;98.5
45383;DHT22;42455;51.660;5.824;2022-09-09T23:30:40;17.1;98.5
45383;DHT22;42455;51.660;5.824;2022-09-09T23:35:42;17.1;98.5
45383;DHT22;42455;51.660;5.824;2022-09-09T23:40:48;17.1;98.5
45383;DHT22;42455;51.660;5.824;2022-09-09T23:45:55;17.0;98.5
45383;DHT22;42455;51.660;5.824;2022-09-09T23:51:00;17.0;98.5
45383;DHT22;42455;51.660;5.824;2022-09-09T23:56:06;17.0;98.5
